60.8°F
Current conditions from King Hill
Updated every 5 minutes
 
  Wednesday September 3, 2014

Station Historical Data
Daily Summary for May 10, 2012 Units:  Both    English   Metric
« Previous Day
Next Day »
Daily Weekly Monthly Yearly Custom
  High: Low: Average:
Temperature: 52.4 °F /  11.3 °C 43.0 °F /  6.1 °C 47.9 °F /  8.8 °C
Dew Point: 49.9 °F /  9.9 °C 39.7 °F /  4.3 °C 44 °F /  6.7 °C
Humidity: 94% 71% 87%
Wind Speed: 9.0mph /  14.5km/h - 3mph /  4.8km/h
Wind Gust: 17.0mph /  27.4km/h - -
Wind- - WNW
Pressure: 29.63 in /  1003.3 hPa 29.43 in /  996.5 hPa -
Precipitation: 0.45 in /  11.4 mm    
Historical Graphs
 
 
Tabular Data for May 10, 2012
Time Temperature Dew Point Pressure Wind Wind Speed Wind Gust Humidity Daily Rainfall
00:00 52.4 °F /  11.3 °C 49.9 °F /  9.9 °C 29.52in /  999.5hPa WSW 2.0mph /  3.2km/h 4.0mph /  6.4km/h 91% 0.16in /  4.1mm
00:05 52.4 °F /  11.3 °C 49.6 °F /  9.8 °C 29.53in /  999.9hPa Calm   4.0mph /  6.4km/h 90% 0.00in /  0mm
00:10 52.2 °F /  11.2 °C 49.4 °F /  9.7 °C 29.52in /  999.5hPa Calm   3.0mph /  4.8km/h 90% 0.00in /  0mm
00:15 52.3 °F /  11.3 °C 49.5 °F /  9.7 °C 29.52in /  999.5hPa Calm   3.0mph /  4.8km/h 90% 0.00in /  0mm
00:19 52.4 °F /  11.3 °C 49.6 °F /  9.8 °C 29.52in /  999.5hPa Calm   1.0mph /  1.6km/h 90% 0.00in /  0mm
00:25 52.4 °F /  11.3 °C 49.3 °F /  9.6 °C 29.52in /  999.5hPa Calm   1.0mph /  1.6km/h 89% 0.00in /  0mm
00:30 52.3 °F /  11.3 °C 49.5 °F /  9.7 °C 29.52in /  999.5hPa Calm     90% 0.00in /  0mm
00:35 52.1 °F /  11.2 °C 49.3 °F /  9.6 °C 29.52in /  999.5hPa Calm     90% 0.00in /  0mm
00:40 52.1 °F /  11.2 °C 49.3 °F /  9.6 °C 29.51in /  999.2hPa Calm     90% 0.00in /  0mm
00:45 52.1 °F /  11.2 °C 49.3 °F /  9.6 °C 29.51in /  999.2hPa Calm     90% 0.00in /  0mm
00:50 52.1 °F /  11.2 °C 49.3 °F /  9.6 °C 29.52in /  999.5hPa Calm     90% 0.00in /  0mm
00:55 52.1 °F /  11.2 °C 49.3 °F /  9.6 °C 29.52in /  999.5hPa Calm     90% 0.00in /  0mm
01:00 52.1 °F /  11.2 °C 49.0 °F /  9.4 °C 29.51in /  999.2hPa Calm     89% 0.00in /  0mm
01:04 52.2 °F /  11.2 °C 49.1 °F /  9.5 °C 29.52in /  999.5hPa Calm     89% 0.00in /  0mm
01:10 52.1 °F /  11.2 °C 48.7 °F /  9.3 °C 29.51in /  999.2hPa Calm     88% 0.00in /  0mm
01:15 52.0 °F /  11.1 °C 48.6 °F /  9.2 °C 29.51in /  999.2hPa Calm   1.0mph /  1.6km/h 88% 0.00in /  0mm
01:19 51.8 °F /  11 °C 48.4 °F /  9.1 °C 29.51in /  999.2hPa Calm   1.0mph /  1.6km/h 88% 0.00in /  0mm
01:25 51.6 °F /  10.9 °C 48.2 °F /  9 °C 29.51in /  999.2hPa Calm   5.0mph /  8km/h 88% 0.00in /  0mm
01:30 51.7 °F /  10.9 °C 48.0 °F /  8.9 °C 29.51in /  999.2hPa Calm   5.0mph /  8km/h 87% 0.00in /  0mm
01:35 51.8 °F /  11 °C 47.7 °F /  8.7 °C 29.51in /  999.2hPa Calm   3.0mph /  4.8km/h 86% 0.00in /  0mm
01:40 51.8 °F /  11 °C 47.7 °F /  8.7 °C 29.51in /  999.2hPa Calm   3.0mph /  4.8km/h 86% 0.00in /  0mm
01:45 51.7 °F /  10.9 °C 47.7 °F /  8.7 °C 29.51in /  999.2hPa Calm   1.0mph /  1.6km/h 86% 0.00in /  0mm
01:50 51.6 °F /  10.9 °C 47.6 °F /  8.7 °C 29.51in /  999.2hPa Calm   1.0mph /  1.6km/h 86% 0.00in /  0mm
01:54 51.6 °F /  10.9 °C 47.2 °F /  8.4 °C 29.51in /  999.2hPa Calm     85% 0.00in /  0mm
01:59 51.7 °F /  10.9 °C 47.3 °F /  8.5 °C 29.51in /  999.2hPa Calm     85% 0.00in /  0mm
02:05 51.5 °F /  10.8 °C 47.1 °F /  8.4 °C 29.51in /  999.2hPa Calm     85% 0.00in /  0mm
02:10 51.5 °F /  10.8 °C 47.1 °F /  8.4 °C 29.51in /  999.2hPa Calm     85% 0.00in /  0mm
02:14 51.5 °F /  10.8 °C 47.1 °F /  8.4 °C 29.50in /  998.9hPa Calm     85% 0.00in /  0mm
02:20 51.5 °F /  10.8 °C 46.8 °F /  8.2 °C 29.51in /  999.2hPa Calm     84% 0.00in /  0mm
02:25 51.6 °F /  10.9 °C 46.9 °F /  8.3 °C 29.50in /  998.9hPa WSW 1.0mph /  1.6km/h 4.0mph /  6.4km/h 84% 0.00in /  0mm
02:30 51.8 °F /  11 °C 46.8 °F /  8.2 °C 29.50in /  998.9hPa Calm   4.0mph /  6.4km/h 83% 0.00in /  0mm
02:35 51.9 °F /  11.1 °C 46.9 °F /  8.3 °C 29.50in /  998.9hPa Calm   4.0mph /  6.4km/h 83% 0.00in /  0mm
02:40 52.0 °F /  11.1 °C 46.7 °F /  8.2 °C 29.50in /  998.9hPa Calm   4.0mph /  6.4km/h 82% 0.00in /  0mm
02:49 51.9 °F /  11.1 °C 46.6 °F /  8.1 °C 29.50in /  998.9hPa Calm     82% 0.00in /  0mm
02:54 51.8 °F /  11 °C 46.5 °F /  8.1 °C 29.50in /  998.9hPa Calm     82% 0.00in /  0mm
03:00 51.8 °F /  11 °C 46.5 °F /  8.1 °C 29.50in /  998.9hPa Calm   3.0mph /  4.8km/h 82% 0.00in /  0mm
03:04 51.8 °F /  11 °C 46.5 °F /  8.1 °C 29.50in /  998.9hPa Calm   3.0mph /  4.8km/h 82% 0.00in /  0mm
03:10 51.7 °F /  10.9 °C 46.4 °F /  8 °C 29.49in /  998.5hPa Calm     82% 0.00in /  0mm
03:14 51.7 °F /  10.9 °C 46.4 °F /  8 °C 29.49in /  998.5hPa Calm     82% 0.00in /  0mm
03:20 51.7 °F /  10.9 °C 46.4 °F /  8 °C 29.49in /  998.5hPa Calm     82% 0.00in /  0mm
03:25 51.6 °F /  10.9 °C 46.3 °F /  7.9 °C 29.49in /  998.5hPa Calm     82% 0.00in /  0mm
03:30 51.5 °F /  10.8 °C 46.2 °F /  7.9 °C 29.49in /  998.5hPa Calm     82% 0.00in /  0mm
03:35 51.4 °F /  10.8 °C 46.1 °F /  7.8 °C 29.48in /  998.2hPa Calm     82% 0.00in /  0mm
03:45 51.3 °F /  10.7 °C 46.3 °F /  7.9 °C 29.48in /  998.2hPa Calm     83% 0.00in /  0mm
03:55 51.1 °F /  10.6 °C 46.4 °F /  8 °C 29.48in /  998.2hPa Calm     84% 0.00in /  0mm
03:59 50.9 °F /  10.5 °C 46.2 °F /  7.9 °C 29.48in /  998.2hPa Calm     84% 0.00in /  0mm
04:05 50.9 °F /  10.5 °C 46.2 °F /  7.9 °C 29.48in /  998.2hPa Calm     84% 0.00in /  0mm
04:10 50.9 °F /  10.5 °C 46.6 °F /  8.1 °C 29.47in /  997.9hPa Calm     85% 0.00in /  0mm
04:15 50.9 °F /  10.5 °C 46.9 °F /  8.3 °C 29.47in /  997.9hPa Calm     86% 0.00in /  0mm
04:19 50.7 °F /  10.4 °C 46.7 °F /  8.2 °C 29.47in /  997.9hPa Calm     86% 0.00in /  0mm
04:25 50.5 °F /  10.3 °C 46.8 °F /  8.2 °C 29.47in /  997.9hPa Calm     87% 0.00in /  0mm
04:29 50.3 °F /  10.2 °C 46.9 °F /  8.3 °C 29.46in /  997.5hPa Calm     88% 0.00in /  0mm
04:35 50.2 °F /  10.1 °C 46.8 °F /  8.2 °C 29.46in /  997.5hPa Calm     88% 0.00in /  0mm
04:40 50.0 °F /  10 °C 46.6 °F /  8.1 °C 29.46in /  997.5hPa Calm     88% 0.00in /  0mm
04:45 49.9 °F /  9.9 °C 46.8 °F /  8.2 °C 29.46in /  997.5hPa Calm     89% 0.00in /  0mm
04:50 49.8 °F /  9.9 °C 46.7 °F /  8.2 °C 29.46in /  997.5hPa Calm     89% 0.00in /  0mm
04:55 49.7 °F /  9.8 °C 46.6 °F /  8.1 °C 29.45in /  997.2hPa Calm     89% 0.00in /  0mm
04:59 49.7 °F /  9.8 °C 46.9 °F /  8.3 °C 29.45in /  997.2hPa Calm     90% 0.01in /  0.3mm
05:05 49.7 °F /  9.8 °C 46.9 °F /  8.3 °C 29.45in /  997.2hPa Calm     90% 0.01in /  0.3mm
05:10 49.6 °F /  9.8 °C 46.8 °F /  8.2 °C 29.45in /  997.2hPa Calm     90% 0.01in /  0.3mm
05:14 49.5 °F /  9.7 °C 46.7 °F /  8.2 °C 29.45in /  997.2hPa Calm     90% 0.01in /  0.3mm
05:20 49.4 °F /  9.7 °C 46.6 °F /  8.1 °C 29.45in /  997.2hPa Calm     90% 0.01in /  0.3mm
05:30 49.2 °F /  9.6 °C 46.7 °F /  8.2 °C 29.45in /  997.2hPa Calm     91% 0.01in /  0.3mm
05:35 49.2 °F /  9.6 °C 46.7 °F /  8.2 °C 29.45in /  997.2hPa Calm     91% 0.01in /  0.3mm
05:40 49.2 °F /  9.6 °C 46.7 °F /  8.2 °C 29.45in /  997.2hPa Calm     91% 0.01in /  0.3mm
05:44 49.3 °F /  9.6 °C 46.8 °F /  8.2 °C 29.45in /  997.2hPa Calm     91% 0.01in /  0.3mm
05:49 49.2 °F /  9.6 °C 46.7 °F /  8.2 °C 29.45in /  997.2hPa Calm     91% 0.01in /  0.3mm
05:54 49.2 °F /  9.6 °C 47.0 °F /  8.3 °C 29.45in /  997.2hPa Calm     92% 0.01in /  0.3mm
06:00 49.2 °F /  9.6 °C 47.0 °F /  8.3 °C 29.45in /  997.2hPa Calm     92% 0.01in /  0.3mm
06:04 49.2 °F /  9.6 °C 47.0 °F /  8.3 °C 29.45in /  997.2hPa Calm     92% 0.01in /  0.3mm
06:09 49.2 °F /  9.6 °C 47.3 °F /  8.5 °C 29.45in /  997.2hPa Calm     93% 0.01in /  0.3mm
06:15 49.2 °F /  9.6 °C 47.3 °F /  8.5 °C 29.45in /  997.2hPa Calm     93% 0.01in /  0.3mm
06:19 49.3 °F /  9.6 °C 47.4 °F /  8.6 °C 29.45in /  997.2hPa Calm     93% 0.02in /  0.5mm
06:24 49.3 °F /  9.6 °C 47.4 °F /  8.6 °C 29.45in /  997.2hPa Calm     93% 0.02in /  0.5mm
06:30 49.2 °F /  9.6 °C 47.3 °F /  8.5 °C 29.45in /  997.2hPa Calm     93% 0.02in /  0.5mm
06:35 49.3 °F /  9.6 °C 47.4 °F /  8.6 °C 29.45in /  997.2hPa Calm     93% 0.02in /  0.5mm
06:39 49.4 °F /  9.7 °C 47.5 °F /  8.6 °C 29.45in /  997.2hPa Calm     93% 0.02in /  0.5mm
06:45 49.5 °F /  9.7 °C 47.6 °F /  8.7 °C 29.45in /  997.2hPa Calm     93% 0.02in /  0.5mm
06:50 49.6 °F /  9.8 °C 47.9 °F /  8.8 °C 29.45in /  997.2hPa Calm     94% 0.02in /  0.5mm
06:54 49.6 °F /  9.8 °C 47.9 °F /  8.8 °C 29.45in /  997.2hPa Calm     94% 0.03in /  0.8mm
06:59 49.6 °F /  9.8 °C 47.9 °F /  8.8 °C 29.45in /  997.2hPa Calm     94% 0.03in /  0.8mm
07:05 49.6 °F /  9.8 °C 47.9 °F /  8.8 °C 29.45in /  997.2hPa Calm     94% 0.03in /  0.8mm
07:09 49.7 °F /  9.8 °C 48.0 °F /  8.9 °C 29.44in /  996.8hPa Calm     94% 0.03in /  0.8mm
07:14 49.7 °F /  9.8 °C 48.0 °F /  8.9 °C 29.44in /  996.8hPa Calm     94% 0.03in /  0.8mm
07:19 49.7 °F /  9.8 °C 48.0 °F /  8.9 °C 29.44in /  996.8hPa Calm     94% 0.04in /  1mm
07:24 49.8 °F /  9.9 °C 48.1 °F /  8.9 °C 29.44in /  996.8hPa Calm     94% 0.04in /  1mm
07:30 49.8 °F /  9.9 °C 48.1 °F /  8.9 °C 29.44in /  996.8hPa Calm   3.0mph /  4.8km/h 94% 0.04in /  1mm
07:35 49.8 °F /  9.9 °C 48.1 °F /  8.9 °C 29.44in /  996.8hPa Calm   3.0mph /  4.8km/h 94% 0.04in /  1mm
07:44 49.6 °F /  9.8 °C 47.9 °F /  8.8 °C 29.44in /  996.8hPa NNW 1.0mph /  1.6km/h 5.0mph /  8km/h 94% 0.04in /  1mm
07:49 49.6 °F /  9.8 °C 47.9 °F /  8.8 °C 29.44in /  996.8hPa Calm   4.0mph /  6.4km/h 94% 0.04in /  1mm
07:54 49.6 °F /  9.8 °C 47.9 °F /  8.8 °C 29.44in /  996.8hPa Calm   5.0mph /  8km/h 94% 0.04in /  1mm
07:59 49.5 °F /  9.7 °C 47.8 °F /  8.8 °C 29.44in /  996.8hPa Calm   5.0mph /  8km/h 94% 0.04in /  1mm
08:05 49.5 °F /  9.7 °C 47.8 °F /  8.8 °C 29.45in /  997.2hPa Calm   4.0mph /  6.4km/h 94% 0.04in /  1mm
08:09 49.2 °F /  9.6 °C 47.5 °F /  8.6 °C 29.45in /  997.2hPa NNW 2.0mph /  3.2km/h 9.0mph /  14.5km/h 94% 0.04in /  1mm
08:15 48.8 °F /  9.3 °C 47.2 °F /  8.4 °C 29.44in /  996.8hPa Calm   9.0mph /  14.5km/h 94% 0.04in /  1mm
08:20 48.8 °F /  9.3 °C 47.2 °F /  8.4 °C 29.44in /  996.8hPa Calm   8.0mph /  12.9km/h 94% 0.04in /  1mm
08:25 48.8 °F /  9.3 °C 47.2 °F /  8.4 °C 29.44in /  996.8hPa Calm   4.0mph /  6.4km/h 94% 0.04in /  1mm
08:29 48.8 °F /  9.3 °C 47.2 °F /  8.4 °C 29.44in /  996.8hPa NW 2.0mph /  3.2km/h 7.0mph /  11.3km/h 94% 0.04in /  1mm
08:35 48.5 °F /  9.2 °C 46.9 °F /  8.3 °C 29.45in /  997.2hPa Calm   7.0mph /  11.3km/h 94% 0.04in /  1mm
08:45 48.3 °F /  9.1 °C 46.7 °F /  8.2 °C 29.44in /  996.8hPa NW 3.0mph /  4.8km/h 7.0mph /  11.3km/h 94% 0.04in /  1mm
08:49 47.9 °F /  8.8 °C 46.3 °F /  7.9 °C 29.44in /  996.8hPa Calm   9.0mph /  14.5km/h 94% 0.04in /  1mm
08:55 47.8 °F /  8.8 °C 46.2 °F /  7.9 °C 29.44in /  996.8hPa Calm   9.0mph /  14.5km/h 94% 0.04in /  1mm
08:59 47.9 °F /  8.8 °C 46.3 °F /  7.9 °C 29.44in /  996.8hPa Calm     94% 0.04in /  1mm
09:04 48.0 °F /  8.9 °C 46.4 °F /  8 °C 29.44in /  996.8hPa Calm     94% 0.04in /  1mm
09:09 47.7 °F /  8.7 °C 46.1 °F /  7.8 °C 29.44in /  996.8hPa NNW 1.0mph /  1.6km/h 6.0mph /  9.7km/h 94% 0.04in /  1mm
09:15 47.6 °F /  8.7 °C 45.7 °F /  7.6 °C 29.43in /  996.5hPa Calm   6.0mph /  9.7km/h 93% 0.04in /  1mm
09:19 47.6 °F /  8.7 °C 45.7 °F /  7.6 °C 29.44in /  996.8hPa Calm   2.0mph /  3.2km/h 93% 0.04in /  1mm
09:24 47.6 °F /  8.7 °C 45.7 °F /  7.6 °C 29.44in /  996.8hPa Calm     93% 0.04in /  1mm
09:30 47.6 °F /  8.7 °C 45.7 °F /  7.6 °C 29.44in /  996.8hPa Calm   4.0mph /  6.4km/h 93% 0.04in /  1mm
09:34 47.5 °F /  8.6 °C 45.6 °F /  7.6 °C 29.44in /  996.8hPa Calm   4.0mph /  6.4km/h 93% 0.04in /  1mm
09:40 47.4 °F /  8.6 °C 45.5 °F /  7.5 °C 29.43in /  996.5hPa Calm   5.0mph /  8km/h 93% 0.04in /  1mm
09:44 47.3 °F /  8.5 °C 45.4 °F /  7.4 °C 29.43in /  996.5hPa Calm   6.0mph /  9.7km/h 93% 0.04in /  1mm
09:49 47.2 °F /  8.4 °C 45.3 °F /  7.4 °C 29.43in /  996.5hPa NE 1.0mph /  1.6km/h 6.0mph /  9.7km/h 93% 0.04in /  1mm
09:54 47.0 °F /  8.3 °C 45.1 °F /  7.3 °C 29.43in /  996.5hPa NNW 1.0mph /  1.6km/h 6.0mph /  9.7km/h 93% 0.04in /  1mm
09:59 47.0 °F /  8.3 °C 45.1 °F /  7.3 °C 29.43in /  996.5hPa NW 1.0mph /  1.6km/h 6.0mph /  9.7km/h 93% 0.04in /  1mm
10:04 47.0 °F /  8.3 °C 45.1 °F /  7.3 °C 29.43in /  996.5hPa NW 1.0mph /  1.6km/h 5.0mph /  8km/h 93% 0.04in /  1mm
10:09 46.9 °F /  8.3 °C 45.0 °F /  7.2 °C 29.43in /  996.5hPa Calm   5.0mph /  8km/h 93% 0.04in /  1mm
10:14 46.9 °F /  8.3 °C 45.0 °F /  7.2 °C 29.43in /  996.5hPa NNW 1.0mph /  1.6km/h 5.0mph /  8km/h 93% 0.04in /  1mm
10:19 46.7 °F /  8.2 °C 44.8 °F /  7.1 °C 29.44in /  996.8hPa Calm   5.0mph /  8km/h 93% 0.04in /  1mm
10:25 46.6 °F /  8.1 °C 44.7 °F /  7.1 °C 29.44in /  996.8hPa Calm   1.0mph /  1.6km/h 93% 0.04in /  1mm
10:30 46.5 °F /  8.1 °C 44.6 °F /  7 °C 29.44in /  996.8hPa NW 1.0mph /  1.6km/h 5.0mph /  8km/h 93% 0.04in /  1mm
10:34 46.3 °F /  7.9 °C 44.4 °F /  6.9 °C 29.44in /  996.8hPa Calm   7.0mph /  11.3km/h 93% 0.04in /  1mm
10:40 46.2 °F /  7.9 °C 44.3 °F /  6.8 °C 29.44in /  996.8hPa NNE 1.0mph /  1.6km/h 7.0mph /  11.3km/h 93% 0.04in /  1mm
10:45 46.0 °F /  7.8 °C 44.1 °F /  6.7 °C 29.44in /  996.8hPa Calm   7.0mph /  11.3km/h 93% 0.04in /  1mm
10:49 45.9 °F /  7.7 °C 44.0 °F /  6.7 °C 29.44in /  996.8hPa North 2.0mph /  3.2km/h 6.0mph /  9.7km/h 93% 0.04in /  1mm
10:55 46.0 °F /  7.8 °C 44.1 °F /  6.7 °C 29.44in /  996.8hPa Calm   6.0mph /  9.7km/h 93% 0.04in /  1mm
10:59 46.1 °F /  7.8 °C 44.2 °F /  6.8 °C 29.44in /  996.8hPa Calm   1.0mph /  1.6km/h 93% 0.04in /  1mm
11:05 45.9 °F /  7.7 °C 44.0 °F /  6.7 °C 29.44in /  996.8hPa NNW 1.0mph /  1.6km/h 4.0mph /  6.4km/h 93% 0.04in /  1mm
11:09 45.8 °F /  7.7 °C 43.9 °F /  6.6 °C 29.44in /  996.8hPa NNW 1.0mph /  1.6km/h 5.0mph /  8km/h 93% 0.04in /  1mm
11:14 45.7 °F /  7.6 °C 43.8 °F /  6.6 °C 29.44in /  996.8hPa NW 2.0mph /  3.2km/h 6.0mph /  9.7km/h 93% 0.04in /  1mm
11:19 45.7 °F /  7.6 °C 43.8 °F /  6.6 °C 29.44in /  996.8hPa Calm   6.0mph /  9.7km/h 93% 0.04in /  1mm
11:24 45.8 °F /  7.7 °C 43.9 °F /  6.6 °C 29.44in /  996.8hPa Calm   6.0mph /  9.7km/h 93% 0.04in /  1mm
11:29 45.9 °F /  7.7 °C 44.0 °F /  6.7 °C 29.44in /  996.8hPa NNW 1.0mph /  1.6km/h 6.0mph /  9.7km/h 93% 0.04in /  1mm
11:35 45.9 °F /  7.7 °C 44.0 °F /  6.7 °C 29.45in /  997.2hPa NNW 1.0mph /  1.6km/h 6.0mph /  9.7km/h 93% 0.04in /  1mm
11:39 45.8 °F /  7.7 °C 43.6 °F /  6.4 °C 29.45in /  997.2hPa Calm   7.0mph /  11.3km/h 92% 0.04in /  1mm
11:45 45.9 °F /  7.7 °C 43.7 °F /  6.5 °C 29.45in /  997.2hPa Calm   7.0mph /  11.3km/h 92% 0.04in /  1mm
11:50 45.9 °F /  7.7 °C 43.7 °F /  6.5 °C 29.45in /  997.2hPa Calm   1.0mph /  1.6km/h 92% 0.04in /  1mm
11:54 45.8 °F /  7.7 °C 43.6 °F /  6.4 °C 29.45in /  997.2hPa North 2.0mph /  3.2km/h 7.0mph /  11.3km/h 92% 0.04in /  1mm
11:59 45.6 °F /  7.6 °C 43.1 °F /  6.2 °C 29.45in /  997.2hPa Calm   7.0mph /  11.3km/h 91% 0.04in /  1mm
12:04 45.6 °F /  7.6 °C 43.1 °F /  6.2 °C 29.45in /  997.2hPa Calm   5.0mph /  8km/h 91% 0.04in /  1mm
12:09 45.5 °F /  7.5 °C 43.0 °F /  6.1 °C 29.45in /  997.2hPa NNW 1.0mph /  1.6km/h 7.0mph /  11.3km/h 91% 0.04in /  1mm
12:14 45.4 °F /  7.4 °C 42.6 °F /  5.9 °C 29.45in /  997.2hPa NNW 2.0mph /  3.2km/h 9.0mph /  14.5km/h 90% 0.04in /  1mm
12:19 45.4 °F /  7.4 °C 42.6 °F /  5.9 °C 29.45in /  997.2hPa NNW 2.0mph /  3.2km/h 9.0mph /  14.5km/h 90% 0.04in /  1mm
12:24 45.4 °F /  7.4 °C 42.6 °F /  5.9 °C 29.45in /  997.2hPa Calm   8.0mph /  12.9km/h 90% 0.04in /  1mm
12:29 45.6 °F /  7.6 °C 42.8 °F /  6 °C 29.45in /  997.2hPa Calm   8.0mph /  12.9km/h 90% 0.04in /  1mm
12:34 45.6 °F /  7.6 °C 42.8 °F /  6 °C 29.45in /  997.2hPa Calm   6.0mph /  9.7km/h 90% 0.04in /  1mm
12:39 45.6 °F /  7.6 °C 42.5 °F /  5.8 °C 29.45in /  997.2hPa Calm   7.0mph /  11.3km/h 89% 0.04in /  1mm
12:45 45.7 °F /  7.6 °C 42.4 °F /  5.8 °C 29.45in /  997.2hPa Calm   7.0mph /  11.3km/h 88% 0.04in /  1mm
12:54 46.0 °F /  7.8 °C 42.6 °F /  5.9 °C 29.45in /  997.2hPa Calm   6.0mph /  9.7km/h 88% 0.04in /  1mm
12:59 46.1 °F /  7.8 °C 42.4 °F /  5.8 °C 29.45in /  997.2hPa Calm   8.0mph /  12.9km/h 87% 0.04in /  1mm
13:04 46.1 °F /  7.8 °C 41.8 °F /  5.4 °C 29.46in /  997.5hPa NW 4.0mph /  6.4km/h 10.0mph /  16.1km/h 85% 0.04in /  1mm
13:09 46.0 °F /  7.8 °C 41.4 °F /  5.2 °C 29.46in /  997.5hPa NW 3.0mph /  4.8km/h 10.0mph /  16.1km/h 84% 0.04in /  1mm
13:14 46.2 °F /  7.9 °C 41.9 °F /  5.5 °C 29.46in /  997.5hPa NNW 1.0mph /  1.6km/h 8.0mph /  12.9km/h 85% 0.04in /  1mm
13:20 46.3 °F /  7.9 °C 41.1 °F /  5.1 °C 29.46in /  997.5hPa NW 3.0mph /  4.8km/h 7.0mph /  11.3km/h 82% 0.04in /  1mm
13:24 46.4 °F /  8 °C 41.2 °F /  5.1 °C 29.46in /  997.5hPa NW 1.0mph /  1.6km/h 7.0mph /  11.3km/h 82% 0.04in /  1mm
13:30 46.7 °F /  8.2 °C 41.5 °F /  5.3 °C 29.46in /  997.5hPa NNW 7.0mph /  11.3km/h 11.0mph /  17.7km/h 82% 0.04in /  1mm
13:40 47.2 °F /  8.4 °C 42.0 °F /  5.6 °C 29.46in /  997.5hPa Calm   9.0mph /  14.5km/h 82% 0.04in /  1mm
13:50 47.7 °F /  8.7 °C 42.2 °F /  5.7 °C 29.46in /  997.5hPa Calm   8.0mph /  12.9km/h 81% 0.04in /  1mm
13:54 47.9 °F /  8.8 °C 42.0 °F /  5.6 °C 29.46in /  997.5hPa Calm   8.0mph /  12.9km/h 80% 0.04in /  1mm
13:59 48.2 °F /  9 °C 42.0 °F /  5.6 °C 29.46in /  997.5hPa Calm   9.0mph /  14.5km/h 79% 0.04in /  1mm
14:04 48.6 °F /  9.2 °C 42.1 °F /  5.6 °C 29.46in /  997.5hPa North 4.0mph /  6.4km/h 9.0mph /  14.5km/h 78% 0.04in /  1mm
14:09 49.2 °F /  9.6 °C 42.6 °F /  5.9 °C 29.47in /  997.9hPa NNW 2.0mph /  3.2km/h 9.0mph /  14.5km/h 78% 0.04in /  1mm
14:14 49.9 °F /  9.9 °C 42.6 °F /  5.9 °C 29.47in /  997.9hPa NW 6.0mph /  9.7km/h 12.0mph /  19.3km/h 76% 0.04in /  1mm
14:20 50.1 °F /  10.1 °C 43.2 °F /  6.2 °C 29.47in /  997.9hPa North 2.0mph /  3.2km/h 12.0mph /  19.3km/h 77% 0.04in /  1mm
14:24 50.1 °F /  10.1 °C 42.5 °F /  5.8 °C 29.47in /  997.9hPa NNW 4.0mph /  6.4km/h 10.0mph /  16.1km/h 75% 0.04in /  1mm
14:30 49.8 °F /  9.9 °C 42.9 °F /  6.1 °C 29.47in /  997.9hPa North 3.0mph /  4.8km/h 11.0mph /  17.7km/h 77% 0.04in /  1mm
14:39 49.7 °F /  9.8 °C 41.8 °F /  5.4 °C 29.47in /  997.9hPa NW 5.0mph /  8km/h 10.0mph /  16.1km/h 74% 0.04in /  1mm
14:44 49.4 °F /  9.7 °C 41.8 °F /  5.4 °C 29.47in /  997.9hPa NW 2.0mph /  3.2km/h 10.0mph /  16.1km/h 75% 0.04in /  1mm
14:50 49.2 °F /  9.6 °C 41.6 °F /  5.3 °C 29.47in /  997.9hPa NNW 4.0mph /  6.4km/h 10.0mph /  16.1km/h 75% 0.04in /  1mm
14:55 49.1 °F /  9.5 °C 41.5 °F /  5.3 °C 29.47in /  997.9hPa WNW 4.0mph /  6.4km/h 10.0mph /  16.1km/h 75% 0.04in /  1mm
14:59 48.8 °F /  9.3 °C 40.9 °F /  4.9 °C 29.47in /  997.9hPa NW 5.0mph /  8km/h 12.0mph /  19.3km/h 74% 0.04in /  1mm
15:04 48.7 °F /  9.3 °C 41.1 °F /  5.1 °C 29.47in /  997.9hPa NW 2.0mph /  3.2km/h 12.0mph /  19.3km/h 75% 0.04in /  1mm
15:10 48.8 °F /  9.3 °C 41.9 °F /  5.5 °C 29.47in /  997.9hPa Calm   11.0mph /  17.7km/h 77% 0.04in /  1mm
15:15 48.8 °F /  9.3 °C 41.6 °F /  5.3 °C 29.47in /  997.9hPa NW 5.0mph /  8km/h 13.0mph /  20.9km/h 76% 0.04in /  1mm
15:24 49.0 °F /  9.4 °C 41.4 °F /  5.2 °C 29.48in /  998.2hPa WNW 2.0mph /  3.2km/h 8.0mph /  12.9km/h 75% 0.04in /  1mm
15:29 48.9 °F /  9.4 °C 41.0 °F /  5 °C 29.48in /  998.2hPa NW 5.0mph /  8km/h 10.0mph /  16.1km/h 74% 0.04in /  1mm
15:35 48.9 °F /  9.4 °C 41.3 °F /  5.2 °C 29.48in /  998.2hPa Calm   10.0mph /  16.1km/h 75% 0.04in /  1mm
15:39 49.0 °F /  9.4 °C 41.8 °F /  5.4 °C 29.48in /  998.2hPa Calm   7.0mph /  11.3km/h 76% 0.04in /  1mm
15:44 49.0 °F /  9.4 °C 41.8 °F /  5.4 °C 29.48in /  998.2hPa WNW 4.0mph /  6.4km/h 10.0mph /  16.1km/h 76% 0.04in /  1mm
15:49 49.0 °F /  9.4 °C 40.7 °F /  4.8 °C 29.48in /  998.2hPa WNW 6.0mph /  9.7km/h 14.0mph /  22.5km/h 73% 0.04in /  1mm
15:54 49.0 °F /  9.4 °C 40.7 °F /  4.8 °C 29.48in /  998.2hPa WNW 6.0mph /  9.7km/h 14.0mph /  22.5km/h 73% 0.04in /  1mm
15:59 49.0 °F /  9.4 °C 40.7 °F /  4.8 °C 29.48in /  998.2hPa WNW 3.0mph /  4.8km/h 10.0mph /  16.1km/h 73% 0.04in /  1mm
16:09 49.3 °F /  9.6 °C 41.0 °F /  5 °C 29.48in /  998.2hPa WNW 4.0mph /  6.4km/h 14.0mph /  22.5km/h 73% 0.04in /  1mm
16:15 49.3 °F /  9.6 °C 41.0 °F /  5 °C 29.48in /  998.2hPa NW 2.0mph /  3.2km/h 10.0mph /  16.1km/h 73% 0.04in /  1mm
16:20 49.4 °F /  9.7 °C 41.5 °F /  5.3 °C 29.48in /  998.2hPa NW 1.0mph /  1.6km/h 10.0mph /  16.1km/h 74% 0.04in /  1mm
16:24 49.5 °F /  9.7 °C 41.6 °F /  5.3 °C 29.49in /  998.5hPa West 2.0mph /  3.2km/h 7.0mph /  11.3km/h 74% 0.04in /  1mm
16:29 49.5 °F /  9.7 °C 40.9 °F /  4.9 °C 29.49in /  998.5hPa WNW 8.0mph /  12.9km/h 13.0mph /  20.9km/h 72% 0.04in /  1mm
16:34 49.4 °F /  9.7 °C 40.4 °F /  4.7 °C 29.49in /  998.5hPa West 9.0mph /  14.5km/h 17.0mph /  27.4km/h 71% 0.04in /  1mm
16:40 49.3 °F /  9.6 °C 40.7 °F /  4.8 °C 29.49in /  998.5hPa West 4.0mph /  6.4km/h 17.0mph /  27.4km/h 72% 0.04in /  1mm
16:44 49.3 °F /  9.6 °C 40.7 °F /  4.8 °C 29.49in /  998.5hPa WNW 5.0mph /  8km/h 15.0mph /  24.1km/h 72% 0.04in /  1mm
16:49 49.3 °F /  9.6 °C 41.0 °F /  5 °C 29.49in /  998.5hPa NW 5.0mph /  8km/h 15.0mph /  24.1km/h 73% 0.04in /  1mm
16:54 49.3 °F /  9.6 °C 40.3 °F /  4.6 °C 29.49in /  998.5hPa WNW 6.0mph /  9.7km/h 12.0mph /  19.3km/h 71% 0.04in /  1mm
17:00 49.4 °F /  9.7 °C 40.8 °F /  4.9 °C 29.50in /  998.9hPa WNW 3.0mph /  4.8km/h 12.0mph /  19.3km/h 72% 0.04in /  1mm
17:04 49.3 °F /  9.6 °C 40.3 °F /  4.6 °C 29.50in /  998.9hPa West 7.0mph /  11.3km/h 12.0mph /  19.3km/h 71% 0.04in /  1mm
17:09 49.2 °F /  9.6 °C 40.2 °F /  4.6 °C 29.50in /  998.9hPa NW 6.0mph /  9.7km/h 12.0mph /  19.3km/h 71% 0.04in /  1mm
17:15 48.9 °F /  9.4 °C 39.9 °F /  4.4 °C 29.51in /  999.2hPa WNW 6.0mph /  9.7km/h 12.0mph /  19.3km/h 71% 0.04in /  1mm
17:19 48.8 °F /  9.3 °C 39.8 °F /  4.3 °C 29.51in /  999.2hPa NW 6.0mph /  9.7km/h 15.0mph /  24.1km/h 71% 0.04in /  1mm
17:25 48.7 °F /  9.3 °C 40.1 °F /  4.5 °C 29.51in /  999.2hPa NW 2.0mph /  3.2km/h 15.0mph /  24.1km/h 72% 0.04in /  1mm
17:30 48.6 °F /  9.2 °C 40.3 °F /  4.6 °C 29.51in /  999.2hPa WNW 2.0mph /  3.2km/h 9.0mph /  14.5km/h 73% 0.04in /  1mm
17:35 48.5 °F /  9.2 °C 40.6 °F /  4.8 °C 29.51in /  999.2hPa WNW 3.0mph /  4.8km/h 11.0mph /  17.7km/h 74% 0.04in /  1mm
17:39 48.3 °F /  9.1 °C 40.1 °F /  4.5 °C 29.51in /  999.2hPa WNW 4.0mph /  6.4km/h 11.0mph /  17.7km/h 73% 0.04in /  1mm
17:44 48.2 °F /  9 °C 40.3 °F /  4.6 °C 29.51in /  999.2hPa WNW 2.0mph /  3.2km/h 10.0mph /  16.1km/h 74% 0.04in /  1mm
17:49 48.1 °F /  8.9 °C 39.9 °F /  4.4 °C 29.52in /  999.5hPa NW 3.0mph /  4.8km/h 11.0mph /  17.7km/h 73% 0.04in /  1mm
17:54 48.0 °F /  8.9 °C 39.8 °F /  4.3 °C 29.52in /  999.5hPa WNW 6.0mph /  9.7km/h 15.0mph /  24.1km/h 73% 0.04in /  1mm
17:59 47.9 °F /  8.8 °C 40.0 °F /  4.4 °C 29.52in /  999.5hPa WNW 1.0mph /  1.6km/h 15.0mph /  24.1km/h 74% 0.04in /  1mm
18:04 47.8 °F /  8.8 °C 39.9 °F /  4.4 °C 29.52in /  999.5hPa NNW 5.0mph /  8km/h 10.0mph /  16.1km/h 74% 0.04in /  1mm
18:09 47.6 °F /  8.7 °C 39.7 °F /  4.3 °C 29.52in /  999.5hPa NW 6.0mph /  9.7km/h 11.0mph /  17.7km/h 74% 0.04in /  1mm
18:14 47.4 °F /  8.6 °C 39.9 °F /  4.4 °C 29.53in /  999.9hPa NW 3.0mph /  4.8km/h 11.0mph /  17.7km/h 75% 0.04in /  1mm
18:19 47.2 °F /  8.4 °C 40.0 °F /  4.4 °C 29.53in /  999.9hPa NW 2.0mph /  3.2km/h 9.0mph /  14.5km/h 76% 0.04in /  1mm
18:24 47.0 °F /  8.3 °C 39.8 °F /  4.3 °C 29.53in /  999.9hPa WNW 5.0mph /  8km/h 9.0mph /  14.5km/h 76% 0.04in /  1mm
18:30 46.9 °F /  8.3 °C 40.4 °F /  4.7 °C 29.53in /  999.9hPa WNW 1.0mph /  1.6km/h 8.0mph /  12.9km/h 78% 0.04in /  1mm
18:34 46.7 °F /  8.2 °C 40.5 °F /  4.7 °C 29.54in /  1000.2hPa WNW 4.0mph /  6.4km/h 7.0mph /  11.3km/h 79% 0.04in /  1mm
18:40 46.5 °F /  8.1 °C 40.3 °F /  4.6 °C 29.54in /  1000.2hPa NW 3.0mph /  4.8km/h 8.0mph /  12.9km/h 79% 0.04in /  1mm
18:49 45.8 °F /  7.7 °C 40.6 °F /  4.8 °C 29.54in /  1000.2hPa NW 1.0mph /  1.6km/h 6.0mph /  9.7km/h 82% 0.04in /  1mm
18:55 45.5 °F /  7.5 °C 40.6 °F /  4.8 °C 29.54in /  1000.2hPa Calm   5.0mph /  8km/h 83% 0.04in /  1mm
19:04 45.0 °F /  7.2 °C 40.8 °F /  4.9 °C 29.55in /  1000.6hPa Calm   6.0mph /  9.7km/h 85% 0.04in /  1mm
19:09 45.0 °F /  7.2 °C 41.1 °F /  5.1 °C 29.55in /  1000.6hPa WNW 1.0mph /  1.6km/h 6.0mph /  9.7km/h 86% 0.04in /  1mm
19:14 44.8 °F /  7.1 °C 40.9 °F /  4.9 °C 29.55in /  1000.6hPa WNW 1.0mph /  1.6km/h 6.0mph /  9.7km/h 86% 0.04in /  1mm
19:19 44.7 °F /  7.1 °C 41.1 °F /  5.1 °C 29.55in /  1000.6hPa Calm   6.0mph /  9.7km/h 87% 0.05in /  1.3mm
19:24 44.6 °F /  7 °C 41.0 °F /  5 °C 29.55in /  1000.6hPa Calm   6.0mph /  9.7km/h 87% 0.05in /  1.3mm
19:29 44.5 °F /  6.9 °C 41.2 °F /  5.1 °C 29.55in /  1000.6hPa WNW 2.0mph /  3.2km/h 5.0mph /  8km/h 88% 0.06in /  1.5mm
19:35 44.3 °F /  6.8 °C 41.0 °F /  5 °C 29.55in /  1000.6hPa Calm   6.0mph /  9.7km/h 88% 0.06in /  1.5mm
19:44 44.3 °F /  6.8 °C 41.3 °F /  5.2 °C 29.55in /  1000.6hPa West 2.0mph /  3.2km/h 6.0mph /  9.7km/h 89% 0.06in /  1.5mm
19:49 44.2 °F /  6.8 °C 41.2 °F /  5.1 °C 29.55in /  1000.6hPa West 1.0mph /  1.6km/h 6.0mph /  9.7km/h 89% 0.07in /  1.8mm
19:54 44.2 °F /  6.8 °C 41.2 °F /  5.1 °C 29.56in /  1000.9hPa Calm   4.0mph /  6.4km/h 89% 0.08in /  2mm
19:59 44.2 °F /  6.8 °C 41.2 °F /  5.1 °C 29.56in /  1000.9hPa West 4.0mph /  6.4km/h 8.0mph /  12.9km/h 89% 0.08in /  2mm
20:04 44.1 °F /  6.7 °C 41.1 °F /  5.1 °C 29.56in /  1000.9hPa Calm   8.0mph /  12.9km/h 89% 0.08in /  2mm
20:09 44.1 °F /  6.7 °C 41.4 °F /  5.2 °C 29.56in /  1000.9hPa West 2.0mph /  3.2km/h 8.0mph /  12.9km/h 90% 0.09in /  2.3mm
20:14 44.0 °F /  6.7 °C 41.3 °F /  5.2 °C 29.56in /  1000.9hPa WSW 3.0mph /  4.8km/h 7.0mph /  11.3km/h 90% 0.10in /  2.5mm
20:19 44.0 °F /  6.7 °C 41.3 °F /  5.2 °C 29.56in /  1000.9hPa West 2.0mph /  3.2km/h 10.0mph /  16.1km/h 90% 0.10in /  2.5mm
20:25 44.0 °F /  6.7 °C 41.3 °F /  5.2 °C 29.57in /  1001.2hPa WSW 2.0mph /  3.2km/h 10.0mph /  16.1km/h 90% 0.11in /  2.8mm
20:29 44.0 °F /  6.7 °C 41.3 °F /  5.2 °C 29.57in /  1001.2hPa WSW 2.0mph /  3.2km/h 8.0mph /  12.9km/h 90% 0.12in /  3mm
20:34 43.9 °F /  6.6 °C 41.2 °F /  5.1 °C 29.57in /  1001.2hPa Calm   8.0mph /  12.9km/h 90% 0.12in /  3mm
20:39 43.9 °F /  6.6 °C 41.2 °F /  5.1 °C 29.57in /  1001.2hPa Calm   8.0mph /  12.9km/h 90% 0.14in /  3.6mm
20:45 43.9 °F /  6.6 °C 41.2 °F /  5.1 °C 29.57in /  1001.2hPa WSW 2.0mph /  3.2km/h 5.0mph /  8km/h 90% 0.14in /  3.6mm
20:54 43.8 °F /  6.6 °C 41.3 °F /  5.2 °C 29.58in /  1001.6hPa Calm   9.0mph /  14.5km/h 91% 0.16in /  4.1mm
20:59 43.7 °F /  6.5 °C 41.2 °F /  5.1 °C 29.58in /  1001.6hPa WSW 3.0mph /  4.8km/h 10.0mph /  16.1km/h 91% 0.17in /  4.3mm
21:04 43.7 °F /  6.5 °C 41.2 °F /  5.1 °C 29.58in /  1001.6hPa West 1.0mph /  1.6km/h 10.0mph /  16.1km/h 91% 0.18in /  4.6mm
21:09 43.7 °F /  6.5 °C 41.2 °F /  5.1 °C 29.58in /  1001.6hPa Calm   7.0mph /  11.3km/h 91% 0.19in /  4.8mm
21:14 43.7 °F /  6.5 °C 41.2 °F /  5.1 °C 29.59in /  1001.9hPa WSW 2.0mph /  3.2km/h 7.0mph /  11.3km/h 91% 0.20in /  5.1mm
21:19 43.6 °F /  6.4 °C 41.1 °F /  5.1 °C 29.59in /  1001.9hPa WNW 1.0mph /  1.6km/h 7.0mph /  11.3km/h 91% 0.21in /  5.3mm
21:24 43.6 °F /  6.4 °C 41.1 °F /  5.1 °C 29.59in /  1001.9hPa WSW 3.0mph /  4.8km/h 8.0mph /  12.9km/h 91% 0.22in /  5.6mm
21:30 43.6 °F /  6.4 °C 41.1 °F /  5.1 °C 29.59in /  1001.9hPa West 1.0mph /  1.6km/h 8.0mph /  12.9km/h 91% 0.23in /  5.8mm
21:34 43.6 °F /  6.4 °C 41.4 °F /  5.2 °C 29.59in /  1001.9hPa Calm   7.0mph /  11.3km/h 92% 0.24in /  6.1mm
21:39 43.6 °F /  6.4 °C 41.1 °F /  5.1 °C 29.59in /  1001.9hPa Calm   7.0mph /  11.3km/h 91% 0.24in /  6.1mm
21:44 43.6 °F /  6.4 °C 41.4 °F /  5.2 °C 29.59in /  1001.9hPa West 1.0mph /  1.6km/h 7.0mph /  11.3km/h 92% 0.25in /  6.4mm
21:49 43.5 °F /  6.4 °C 41.3 °F /  5.2 °C 29.59in /  1001.9hPa SW 1.0mph /  1.6km/h 7.0mph /  11.3km/h 92% 0.26in /  6.6mm
21:54 43.6 °F /  6.4 °C 41.4 °F /  5.2 °C 29.60in /  1002.3hPa WSW 2.0mph /  3.2km/h 6.0mph /  9.7km/h 92% 0.26in /  6.6mm
21:59 43.6 °F /  6.4 °C 41.4 °F /  5.2 °C 29.60in /  1002.3hPa West 1.0mph /  1.6km/h 7.0mph /  11.3km/h 92% 0.27in /  6.9mm
22:04 43.6 °F /  6.4 °C 41.4 °F /  5.2 °C 29.60in /  1002.3hPa West 2.0mph /  3.2km/h 7.0mph /  11.3km/h 92% 0.28in /  7.1mm
22:09 43.7 °F /  6.5 °C 41.5 °F /  5.3 °C 29.60in /  1002.3hPa West 2.0mph /  3.2km/h 6.0mph /  9.7km/h 92% 0.29in /  7.4mm
22:14 43.7 °F /  6.5 °C 41.5 °F /  5.3 °C 29.60in /  1002.3hPa WNW 2.0mph /  3.2km/h 6.0mph /  9.7km/h 92% 0.30in /  7.6mm
22:19 43.7 °F /  6.5 °C 41.5 °F /  5.3 °C 29.60in /  1002.3hPa Calm   6.0mph /  9.7km/h 92% 0.30in /  7.6mm
22:25 43.7 °F /  6.5 °C 41.5 °F /  5.3 °C 29.60in /  1002.3hPa Calm   6.0mph /  9.7km/h 92% 0.30in /  7.6mm
22:34 43.6 °F /  6.4 °C 41.4 °F /  5.2 °C 29.60in /  1002.3hPa WNW 3.0mph /  4.8km/h 10.0mph /  16.1km/h 92% 0.32in /  8.1mm
22:39 43.6 °F /  6.4 °C 41.4 °F /  5.2 °C 29.60in /  1002.3hPa West 6.0mph /  9.7km/h 10.0mph /  16.1km/h 92% 0.33in /  8.4mm
22:45 43.6 °F /  6.4 °C 41.4 °F /  5.2 °C 29.60in /  1002.3hPa WNW 6.0mph /  9.7km/h 11.0mph /  17.7km/h 92% 0.34in /  8.6mm
22:49 43.6 °F /  6.4 °C 41.4 °F /  5.2 °C 29.60in /  1002.3hPa WNW 2.0mph /  3.2km/h 11.0mph /  17.7km/h 92% 0.34in /  8.6mm
22:54 43.5 °F /  6.4 °C 41.3 °F /  5.2 °C 29.60in /  1002.3hPa West 4.0mph /  6.4km/h 10.0mph /  16.1km/h 92% 0.35in /  8.9mm
22:59 43.4 °F /  6.3 °C 41.2 °F /  5.1 °C 29.61in /  1002.6hPa WNW 4.0mph /  6.4km/h 10.0mph /  16.1km/h 92% 0.36in /  9.1mm
23:04 43.4 °F /  6.3 °C 41.2 °F /  5.1 °C 29.61in /  1002.6hPa WNW 6.0mph /  9.7km/h 13.0mph /  20.9km/h 92% 0.36in /  9.1mm
23:09 43.3 °F /  6.3 °C 41.1 °F /  5.1 °C 29.61in /  1002.6hPa West 5.0mph /  8km/h 14.0mph /  22.5km/h 92% 0.37in /  9.4mm
23:14 43.3 °F /  6.3 °C 41.1 °F /  5.1 °C 29.61in /  1002.6hPa WNW 4.0mph /  6.4km/h 14.0mph /  22.5km/h 92% 0.38in /  9.7mm
23:19 43.3 °F /  6.3 °C 41.1 °F /  5.1 °C 29.61in /  1002.6hPa WNW 4.0mph /  6.4km/h 10.0mph /  16.1km/h 92% 0.39in /  9.9mm
23:25 43.2 °F /  6.2 °C 41.0 °F /  5 °C 29.61in /  1002.6hPa WNW 4.0mph /  6.4km/h 8.0mph /  12.9km/h 92% 0.40in /  10.2mm
23:29 43.2 °F /  6.2 °C 41.0 °F /  5 °C 29.61in /  1002.6hPa West 1.0mph /  1.6km/h 8.0mph /  12.9km/h 92% 0.41in /  10.4mm
23:35 43.2 °F /  6.2 °C 41.0 °F /  5 °C 29.61in /  1002.6hPa WNW 2.0mph /  3.2km/h 9.0mph /  14.5km/h 92% 0.42in /  10.7mm
23:40 43.1 °F /  6.2 °C 40.9 °F /  4.9 °C 29.62in /  1002.9hPa West 3.0mph /  4.8km/h 9.0mph /  14.5km/h 92% 0.42in /  10.7mm
23:49 43.1 °F /  6.2 °C 40.9 °F /  4.9 °C 29.62in /  1002.9hPa West 4.0mph /  6.4km/h 10.0mph /  16.1km/h 92% 0.44in /  11.2mm
23:54 43.0 °F /  6.1 °C 40.8 °F /  4.9 °C 29.62in /  1002.9hPa West 1.0mph /  1.6km/h 9.0mph /  14.5km/h 92% 0.44in /  11.2mm
23:59 43.1 °F /  6.2 °C 40.9 °F /  4.9 °C 29.63in /  1003.3hPa West 5.0mph /  8km/h 10.0mph /  16.1km/h 92% 0.45in /  11.4mm
Westford Weather
Compliments of Weather Underground

 
 
Current Radar Loop:

Copyright © WestfordWeather.net 2007-2014. All rights reserved.